Time;durP1;ratioP1;P1;durP2;ratioP2;P2;SDS_P1;SDS_P2;PMS_P1;PMS_P2;Temp;Humidity;BMP_temperature;BMP_pressure;BME280_temperature;BME280_humidity;BME280_pressure;Samples;Min_cycle;Max_cycle;Signal;HPM_P1;HPM_P2
2023/04/02 00:00:10;;;;;;;;;;;10.60;14.60;;;;;;5075039;28;19999;-75
2023/04/02 00:02:57;;;;;;;;;;;10.60;15.50;;;;;;5095565;28;19935;-75
2023/04/02 00:05:30;;;;;;;;;;;10.60;16.10;;;;;;5089474;28;19914;-75
2023/04/02 00:07:57;;;;;;;;;;;10.50;18.00;;;;;;5077557;28;20398;-74
2023/04/02 00:10:37;;;;;;;;;;;10.50;17.50;;;;;;5080821;28;19908;-75
2023/04/02 00:13:06;;;;;;;;;;;10.50;17.70;;;;;;5076417;28;19915;-80
2023/04/02 00:21:58;;;;;;;;;;;10.40;21.50;;;;;;5075962;28;19915;-80
2023/04/02 00:24:37;;;;;;;;;;;10.30;23.10;;;;;;5078738;28;19908;-80
2023/04/02 00:27:05;;;;;;;;;;;10.30;25.30;;;;;;5083445;28;19908;-82
2023/04/02 00:29:31;;;;;;;;;;;10.20;24.40;;;;;;5095436;28;19957;-81
2023/04/02 00:35:28;;;;;;;;;;;10.20;41.70;;;;;;5082243;28;20424;-80
2023/04/02 00:38:17;;;;;;;;;;;10.20;35.60;;;;;;5077830;28;19951;-80
2023/04/02 00:40:48;;;;;;;;;;;10.20;42.00;;;;;;5074732;28;19916;-80
2023/04/02 00:46:48;;;;;;;;;;;10.10;42.00;;;;;;5077845;28;19923;-80
2023/04/02 00:49:40;;;;;;;;;;;10.10;41.90;;;;;;5095514;28;20342;-80
2023/04/02 00:55:32;;;;;;;;;;;10.20;42.10;;;;;;5087092;28;19961;-80
2023/04/02 00:57:59;;;;;;;;;;;10.20;42.00;;;;;;5088948;28;19908;-80
2023/04/02 01:00:47;;;;;;;;;;;10.30;42.30;;;;;;5095270;28;19911;-80
2023/04/02 01:03:23;;;;;;;;;;;10.30;42.10;;;;;;5088844;28;19907;-80
2023/04/02 01:06:09;;;;;;;;;;;10.40;40.10;;;;;;5091298;28;20263;-80
2023/04/02 01:08:46;;;;;;;;;;;10.40;33.50;;;;;;5083642;28;19908;-80
2023/04/02 01:14:46;;;;;;;;;;;10.30;34.00;;;;;;5076917;28;19915;-80
2023/04/02 01:17:27;;;;;;;;;;;10.30;42.00;;;;;;5091728;28;19911;-81
2023/04/02 01:20:22;;;;;;;;;;;10.40;37.10;;;;;;5074231;28;19910;-80
2023/04/02 01:29:12;;;;;;;;;;;10.40;34.50;;;;;;5077317;28;19957;-80
2023/04/02 01:34:48;;;;;;;;;;;10.30;34.90;;;;;;5078877;28;20291;-80
2023/04/02 01:37:48;;;;;;;;;;;10.30;36.40;;;;;;5092489;28;19908;-80
2023/04/02 01:40:17;;;;;;;;;;;10.30;37.70;;;;;;5094834;28;19908;-80
2023/04/02 01:42:42;;;;;;;;;;;10.30;42.30;;;;;;5093272;28;20323;-75
2023/04/02 01:45:35;;;;;;;;;;;10.30;40.50;;;;;;5074714;28;20008;-75
2023/04/02 01:48:04;;;;;;;;;;;10.30;34.10;;;;;;5056394;28;19914;-74
2023/04/02 01:50:46;;;;;;;;;;;10.30;34.60;;;;;;5074617;28;19904;-75
2023/04/02 01:53:14;;;;;;;;;;;10.20;42.20;;;;;;5075214;28;20260;-75
2023/04/02 01:55:49;;;;;;;;;;;10.30;42.10;;;;;;5094314;28;19908;-75
2023/04/02 01:58:35;;;;;;;;;;;10.30;42.10;;;;;;5079589;28;19991;-80
2023/04/02 02:04:03;;;;;;;;;;;10.30;42.10;;;;;;5087998;28;19910;-80
2023/04/02 02:06:30;;;;;;;;;;;10.30;42.00;;;;;;5083923;28;19943;-80
2023/04/02 02:09:16;;;;;;;;;;;10.30;42.00;;;;;;5074081;28;19908;-80
2023/04/02 02:11:47;;;;;;;;;;;10.30;41.80;;;;;;5079149;28;19915;-80
2023/04/02 02:17:34;;;;;;;;;;;10.40;32.60;;;;;;5077209;28;19911;-80
2023/04/02 02:20:16;;;;;;;;;;;10.40;29.20;;;;;;5073897;28;19914;-80
2023/04/02 02:23:00;;;;;;;;;;;10.40;30.00;;;;;;5093680;28;19948;-80
2023/04/02 02:25:47;;;;;;;;;;;10.40;27.80;;;;;;5088029;28;19999;-80
2023/04/02 02:28:19;;;;;;;;;;;10.40;26.30;;;;;;5064983;28;19908;-75
2023/04/02 02:30:47;;;;;;;;;;;10.40;24.50;;;;;;5073980;28;19912;-75
2023/04/02 02:33:22;;;;;;;;;;;10.50;24.30;;;;;;5074205;28;19947;-75
2023/04/02 02:36:04;;;;;;;;;;;10.40;25.90;;;;;;5083165;28;19908;-74
2023/04/02 02:38:30;;;;;;;;;;;10.30;27.20;;;;;;5078703;28;20359;-75
2023/04/02 02:41:19;;;;;;;;;;;10.30;28.50;;;;;;5083016;28;20015;-75
2023/04/02 02:43:56;;;;;;;;;;;10.30;29.00;;;;;;5032343;28;19960;-75
2023/04/02 02:46:22;;;;;;;;;;;10.20;31.10;;;;;;5031305;28;19916;-75
2023/04/02 02:48:48;;;;;;;;;;;10.30;31.10;;;;;;5031017;28;19918;-75
2023/04/02 02:51:20;;;;;;;;;;;10.20;32.80;;;;;;5031070;28;19916;-75
2023/04/02 02:53:49;;;;;;;;;;;10.20;38.50;;;;;;5009638;28;20344;-74
2023/04/02 02:56:15;;;;;;;;;;;10.20;37.10;;;;;;5018470;28;19909;-74
2023/04/02 02:58:48;;;;;;;;;;;10.20;36.30;;;;;;5014323;28;19963;-80
2023/04/02 03:04:40;;;;;;;;;;;10.10;42.00;;;;;;5028323;28;19971;-80
2023/04/02 03:07:18;;;;;;;;;;;10.10;41.80;;;;;;5021400;28;19909;-80
2023/04/02 03:13:00;;;;;;;;;;;10.10;42.10;;;;;;5019700;28;19948;-76
2023/04/02 03:15:36;;;;;;;;;;;10.10;41.80;;;;;;5015634;28;19909;-75
2023/04/02 03:18:07;;;;;;;;;;;10.10;41.90;;;;;;5020263;28;20004;-75
2023/04/02 03:20:36;;;;;;;;;;;10.10;41.90;;;;;;5044233;28;19908;-75
2023/04/02 03:23:40;;;;;;;;;;;10.20;42.00;;;;;;5082913;28;19999;-75
2023/04/02 03:26:08;;;;;;;;;;;10.20;42.00;;;;;;5049464;28;20394;-75
2023/04/02 03:28:37;;;;;;;;;;;10.20;36.00;;;;;;5038216;28;19905;-75
2023/04/02 03:31:05;;;;;;;;;;;10.10;42.10;;;;;;5017086;28;19917;-75
2023/04/02 03:33:31;;;;;;;;;;;10.20;42.20;;;;;;5015245;28;19909;-75
2023/04/02 03:36:11;;;;;;;;;;;10.10;41.90;;;;;;5029093;28;19909;-75
2023/04/02 03:38:45;;;;;;;;;;;10.10;41.90;;;;;;5034574;28;19909;-75
2023/04/02 03:41:11;;;;;;;;;;;10.20;42.30;;;;;;5034170;28;20415;-75
2023/04/02 03:43:50;;;;;;;;;;;10.20;42.00;;;;;;5034204;28;19913;-80
2023/04/02 03:46:41;;;;;;;;;;;10.20;43.70;;;;;;5034396;28;19999;-80
2023/04/02 03:52:10;;;;;;;;;;;10.20;41.60;;;;;;5021687;28;20012;-81
2023/04/02 03:57:41;;;;;;;;;;;10.20;33.80;;;;;;5083484;28;19977;-80
2023/04/02 04:06:26;;;;;;;;;;;10.20;33.00;;;;;;5075825;28;19904;-80
2023/04/02 04:12:16;;;;;;;;;;;10.20;32.00;;;;;;5075953;28;19912;-81
2023/04/02 04:14:44;;;;;;;;;;;10.10;32.10;;;;;;5076477;28;19908;-75
2023/04/02 04:17:23;;;;;;;;;;;10.10;33.80;;;;;;5066893;28;19931;-84
2023/04/02 04:19:58;;;;;;;;;;;10.10;30.90;;;;;;5075728;28;19904;-82
2023/04/02 04:22:28;;;;;;;;;;;10.10;34.60;;;;;;5075968;28;20321;-82
2023/04/02 04:24:56;;;;;;;;;;;10.10;34.10;;;;;;5076126;28;20281;-82
2023/04/02 04:27:46;;;;;;;;;;;10.10;34.80;;;;;;5090668;28;19912;-81
2023/04/02 04:30:24;;;;;;;;;;;10.20;33.90;;;;;;5076009;28;19908;-83
2023/04/02 04:33:02;;;;;;;;;;;10.20;31.40;;;;;;5075829;28;19916;-83
2023/04/02 04:36:04;;;;;;;;;;;10.20;30.00;;;;;;5075375;28;19953;-84
2023/04/02 04:38:33;;;;;;;;;;;10.20;31.40;;;;;;5059551;28;19908;-83
2023/04/02 04:41:04;;;;;;;;;;;10.30;28.50;;;;;;5075433;28;19919;-83
2023/04/02 04:43:35;;;;;;;;;;;10.30;28.60;;;;;;5075694;28;20287;-83
2023/04/02 04:46:21;;;;;;;;;;;10.30;27.00;;;;;;5092050;28;19994;-81
2023/04/02 04:49:05;;;;;;;;;;;10.30;24.60;;;;;;5074630;28;20357;-81
2023/04/02 04:51:47;;;;;;;;;;;10.40;22.70;;;;;;5079309;28;19957;-81
2023/04/02 04:54:18;;;;;;;;;;;10.40;23.00;;;;;;5095678;28;20313;-81
2023/04/02 04:57:05;;;;;;;;;;;10.40;22.50;;;;;;5084997;28;19961;-81
2023/04/02 04:59:44;;;;;;;;;;;10.40;22.90;;;;;;5075636;28;19916;-81
2023/04/02 05:02:31;;;;;;;;;;;10.40;23.40;;;;;;5067476;28;20004;-81
2023/04/02 05:05:17;;;;;;;;;;;10.40;23.00;;;;;;5079214;28;19914;-81
2023/04/02 05:07:49;;;;;;;;;;;10.30;23.10;;;;;;5077116;28;19991;-80
2023/04/02 05:10:35;;;;;;;;;;;10.30;24.40;;;;;;5091908;28;19904;-81
2023/04/02 05:13:29;;;;;;;;;;;10.20;25.00;;;;;;5074293;28;19908;-81
2023/04/02 05:19:23;;;;;;;;;;;10.30;23.80;;;;;;5075016;28;19990;-83
2023/04/02 05:28:05;;;;;;;;;;;10.40;24.80;;;;;;5089726;28;20316;-83
2023/04/02 05:30:36;;;;;;;;;;;10.40;24.90;;;;;;5081467;28;19920;-82
2023/04/02 05:33:13;;;;;;;;;;;10.40;22.90;;;;;;5081284;28;20384;-81
2023/04/02 05:35:49;;;;;;;;;;;10.50;21.10;;;;;;5070839;28;19916;-81
2023/04/02 05:41:30;;;;;;;;;;;10.50;21.10;;;;;;5094880;28;19951;-81
2023/04/02 05:44:19;;;;;;;;;;;10.60;21.50;;;;;;5060255;28;19904;-81
2023/04/02 05:47:19;;;;;;;;;;;10.60;19.70;;;;;;5018238;28;20003;-81
2023/04/02 05:49:49;;;;;;;;;;;10.70;21.00;;;;;;4940638;29;19999;-82
2023/04/02 05:52:22;;;;;;;;;;;10.80;22.10;;;;;;4934741;29;19965;-81
2023/04/02 05:54:56;;;;;;;;;;;10.80;21.80;;;;;;4935423;29;19906;-80
2023/04/02 05:57:30;;;;;;;;;;;10.90;21.40;;;;;;4938277;29;20355;-81
2023/04/02 05:59:57;;;;;;;;;;;10.90;20.20;;;;;;4933672;29;19915;-81
2023/04/02 06:02:35;;;;;;;;;;;11.00;18.70;;;;;;4933713;29;20005;-80
2023/04/02 06:05:29;;;;;;;;;;;11.10;15.20;;;;;;4920463;29;19914;-81
2023/04/02 06:08:08;;;;;;;;;;;11.20;12.30;;;;;;4934880;29;19907;-81
2023/04/02 06:10:42;;;;;;;;;;;11.20;8.50;;;;;;4933921;29;20366;-81
2023/04/02 06:13:17;;;;;;;;;;;11.30;6.90;;;;;;4934700;29;19938;-81
2023/04/02 06:18:47;;;;;;;;;;;11.40;3.70;;;;;;4934616;29;19936;-83
2023/04/02 06:24:18;;;;;;;;;;;11.50;1.00;;;;;;4992807;28;19916;-83
2023/04/02 06:30:01;;;;;;;;;;;11.60;1.00;;;;;;5073567;28;20041;-82
2023/04/02 06:32:41;;;;;;;;;;;11.60;1.00;;;;;;5088183;28;19916;-83
2023/04/02 06:35:11;;;;;;;;;;;11.70;1.00;;;;;;5073218;28;19941;-82
2023/04/02 06:37:48;;;;;;;;;;;11.60;1.00;;;;;;5081461;28;19919;-83
2023/04/02 06:43:25;;;;;;;;;;;11.30;1.00;;;;;;5077643;28;19912;-82
2023/04/02 06:46:16;;;;;;;;;;;10.80;1.00;;;;;;5060980;28;19948;-80
2023/04/02 06:49:16;;;;;;;;;;;10.40;1.00;;;;;;5063945;28;19915;-80
2023/04/02 06:52:00;;;;;;;;;;;10.20;1.00;;;;;;5078555;28;19908;-80
2023/04/02 06:54:59;;;;;;;;;;;10.00;1.00;;;;;;5059971;28;19919;-80
2023/04/02 06:57:41;;;;;;;;;;;9.80;1.00;;;;;;5067890;28;20042;-80
2023/04/02 07:00:32;;;;;;;;;;;9.70;1.00;;;;;;5066899;28;20265;-80
2023/04/02 07:03:23;;;;;;;;;;;9.60;1.00;;;;;;5007154;28;20377;-80
2023/04/02 07:05:53;;;;;;;;;;;9.70;2.00;;;;;;5007680;28;19909;-81
2023/04/02 07:08:23;;;;;;;;;;;9.60;1.00;;;;;;5007988;28;19948;-80
2023/04/02 07:10:59;;;;;;;;;;;9.70;3.60;;;;;;5007921;28;19988;-80
2023/04/02 07:13:47;;;;;;;;;;;9.70;4.60;;;;;;4996614;28;20263;-81
2023/04/02 07:16:18;;;;;;;;;;;9.60;9.10;;;;;;5009135;28;19906;-80
2023/04/02 07:22:11;;;;;;;;;;;9.60;4.80;;;;;;5014004;28;19920;-80
2023/04/02 07:24:47;;;;;;;;;;;9.60;3.50;;;;;;5015312;28;19963;-80
2023/04/02 07:27:17;;;;;;;;;;;9.60;6.60;;;;;;5003611;28;19941;-80
2023/04/02 07:29:53;;;;;;;;;;;9.60;5.70;;;;;;4999327;28;19905;-80
2023/04/02 07:32:23;;;;;;;;;;;9.60;7.40;;;;;;5012120;28;19924;-82
2023/04/02 07:34:53;;;;;;;;;;;9.70;9.70;;;;;;4995178;28;19920;-83
2023/04/02 07:37:29;;;;;;;;;;;9.70;2.80;;;;;;4995409;28;19956;-83
2023/04/02 07:39:59;;;;;;;;;;;9.70;1.00;;;;;;5034802;28;20011;-83
2023/04/02 07:42:29;;;;;;;;;;;9.70;1.00;;;;;;5058841;28;19908;-82
2023/04/02 07:45:05;;;;;;;;;;;9.70;1.00;;;;;;5061082;28;19913;-82
2023/04/02 07:47:35;;;;;;;;;;;9.70;1.00;;;;;;5081928;28;19908;-80
2023/04/02 07:50:17;;;;;;;;;;;9.70;1.00;;;;;;5096081;28;20451;-80
2023/04/02 07:52:59;;;;;;;;;;;9.70;1.00;;;;;;5079101;28;19998;-81
2023/04/02 07:55:41;;;;;;;;;;;9.70;1.00;;;;;;5058397;28;19944;-81
2023/04/02 07:58:11;;;;;;;;;;;9.60;1.00;;;;;;5067408;28;20006;-80
2023/04/02 08:00:37;;;;;;;;;;;9.60;1.00;;;;;;5089491;28;19958;-80
2023/04/02 08:03:12;;;;;;;;;;;9.70;1.00;;;;;;5082716;28;19982;-83
2023/04/02 08:05:50;;;;;;;;;;;9.80;1.00;;;;;;5074232;28;19908;-83
2023/04/02 08:11:23;;;;;;;;;;;9.60;1.00;;;;;;5075648;28;19915;-82
2023/04/02 08:13:49;;;;;;;;;;;9.60;1.00;;;;;;5058775;28;19974;-83
2023/04/02 08:16:17;;;;;;;;;;;9.80;1.00;;;;;;5087221;28;19934;-81
2023/04/02 08:18:47;;;;;;;;;;;9.80;1.00;;;;;;5088854;28;19911;-80
2023/04/02 08:21:17;;;;;;;;;;;9.70;1.00;;;;;;5067087;28;19908;-81
2023/04/02 08:23:47;;;;;;;;;;;9.70;1.00;;;;;;5075553;28;19991;-80
2023/04/02 08:26:35;;;;;;;;;;;9.80;1.00;;;;;;5077752;28;19905;-80
2023/04/02 08:29:11;;;;;;;;;;;9.80;1.00;;;;;;5077416;28;19908;-80
2023/04/02 08:32:11;;;;;;;;;;;9.60;1.00;;;;;;5075789;28;19966;-81
2023/04/02 08:34:36;;;;;;;;;;;9.60;1.00;;;;;;5075457;28;19913;-80
2023/04/02 08:37:05;;;;;;;;;;;9.70;1.00;;;;;;5093139;28;19904;-81
2023/04/02 08:39:33;;;;;;;;;;;9.80;1.00;;;;;;5079172;28;19908;-80
2023/04/02 08:42:01;;;;;;;;;;;9.80;1.00;;;;;;5075485;28;19912;-80
2023/04/02 08:44:31;;;;;;;;;;;9.80;1.00;;;;;;5076791;28;19969;-80
2023/04/02 08:47:02;;;;;;;;;;;9.70;1.00;;;;;;5096192;28;19986;-80
2023/04/02 08:49:31;;;;;;;;;;;9.60;1.00;;;;;;5075719;28;19908;-81
2023/04/02 08:52:05;;;;;;;;;;;9.40;1.00;;;;;;5057383;28;19912;-80
2023/04/02 08:54:47;;;;;;;;;;;9.40;1.00;;;;;;5087288;28;19918;-81
2023/04/02 08:57:35;;;;;;;;;;;9.40;1.00;;;;;;5058025;28;19950;-82
2023/04/02 09:00:09;;;;;;;;;;;9.40;1.00;;;;;;5087147;28;19908;-80
2023/04/02 09:02:59;;;;;;;;;;;9.50;1.00;;;;;;5081760;28;20387;-80
2023/04/02 09:05:37;;;;;;;;;;;9.60;1.00;;;;;;5075139;28;20016;-80
2023/04/02 09:08:19;;;;;;;;;;;9.50;1.00;;;;;;5091661;28;19915;-80
2023/04/02 09:10:49;;;;;;;;;;;9.40;1.00;;;;;;5079773;28;19909;-80
2023/04/02 09:13:21;;;;;;;;;;;9.40;1.00;;;;;;5090814;28;20003;-80
2023/04/02 09:15:48;;;;;;;;;;;9.40;1.00;;;;;;5060036;28;19915;-80
2023/04/02 09:18:47;;;;;;;;;;;9.50;1.00;;;;;;5057450;28;19904;-80
2023/04/02 09:21:35;;;;;;;;;;;9.50;1.00;;;;;;5075011;28;19991;-80
2023/04/02 09:24:12;;;;;;;;;;;9.40;1.00;;;;;;5075228;28;19904;-80
2023/04/02 09:27:05;;;;;;;;;;;9.40;1.00;;;;;;5074729;28;19957;-80
2023/04/02 09:32:41;;;;;;;;;;;9.70;1.00;;;;;;5074976;28;19920;-80
2023/04/02 09:38:19;;;;;;;;;;;10.00;1.00;;;;;;5074392;28;20378;-80
2023/04/02 09:44:17;;;;;;;;;;;10.40;1.00;;;;;;5078879;28;19911;-80
2023/04/02 09:47:13;;;;;;;;;;;10.60;1.00;;;;;;5094818;28;19911;-80
2023/04/02 09:49:39;;;;;;;;;;;10.70;1.00;;;;;;5031477;28;20404;-74
2023/04/02 09:52:16;;;;;;;;;;;10.70;1.00;;;;;;5032456;28;20410;-73
2023/04/02 09:54:42;;;;;;;;;;;10.70;1.00;;;;;;5032409;28;19904;-74
2023/04/02 09:57:20;;;;;;;;;;;10.60;1.00;;;;;;5019575;28;20372;-74
2023/04/02 09:59:45;;;;;;;;;;;10.50;1.00;;;;;;5026720;28;19955;-73
2023/04/02 10:02:47;;;;;;;;;;;10.40;1.00;;;;;;5032518;28;20339;-80
2023/04/02 10:05:41;;;;;;;;;;;10.60;1.00;;;;;;5032309;28;19905;-80
2023/04/02 10:08:29;;;;;;;;;;;10.70;1.00;;;;;;5032268;28;19912;-81
2023/04/02 10:11:17;;;;;;;;;;;10.70;1.00;;;;;;5029813;28;19905;-80
2023/04/02 10:13:53;;;;;;;;;;;10.80;1.00;;;;;;5012164;28;20451;-80
2023/04/02 10:16:47;;;;;;;;;;;11.00;1.00;;;;;;5012729;28;19913;-80
2023/04/02 10:19:47;;;;;;;;;;;11.30;1.00;;;;;;5012646;28;19905;-80
2023/04/02 10:22:18;;;;;;;;;;;11.50;1.00;;;;;;4995787;28;19916;-80
2023/04/02 10:24:47;;;;;;;;;;;11.30;1.00;;;;;;5012497;28;19906;-80
2023/04/02 10:27:47;;;;;;;;;;;11.10;1.00;;;;;;5072318;28;19914;-81
2023/04/02 10:30:23;;;;;;;;;;;11.00;1.00;;;;;;5074318;28;19905;-81
2023/04/02 10:32:49;;;;;;;;;;;10.90;1.00;;;;;;5074289;28;20356;-76
2023/04/02 10:35:33;;;;;;;;;;;10.90;1.00;;;;;;5074147;28;19912;-75
2023/04/02 10:38:05;;;;;;;;;;;11.00;1.00;;;;;;5074132;28;19932;-75
2023/04/02 10:40:54;;;;;;;;;;;10.90;1.00;;;;;;5075274;28;19983;-74
2023/04/02 10:43:40;;;;;;;;;;;10.80;1.00;;;;;;5074103;28;19913;-76
2023/04/02 10:46:14;;;;;;;;;;;10.90;1.00;;;;;;5073510;28;20028;-76
2023/04/02 10:48:51;;;;;;;;;;;10.90;1.00;;;;;;5074155;28;20004;-76
2023/04/02 10:51:23;;;;;;;;;;;10.90;1.00;;;;;;5080392;28;19912;-76
2023/04/02 10:54:01;;;;;;;;;;;10.80;1.00;;;;;;5074172;28;19973;-76
2023/04/02 10:56:27;;;;;;;;;;;10.70;1.00;;;;;;5076901;28;20336;-76
2023/04/02 10:59:31;;;;;;;;;;;10.50;1.00;;;;;;5094194;28;19911;-76
2023/04/02 11:02:13;;;;;;;;;;;10.40;1.00;;;;;;5031726;28;20302;-75
2023/04/02 11:04:48;;;;;;;;;;;10.20;1.00;;;;;;5031071;28;19912;-80
2023/04/02 11:07:25;;;;;;;;;;;10.40;1.00;;;;;;5031724;28;19909;-80
2023/04/02 11:10:18;;;;;;;;;;;10.40;1.00;;;;;;5031761;28;20370;-81
2023/04/02 11:12:53;;;;;;;;;;;10.60;1.00;;;;;;5031321;28;20332;-80
2023/04/02 11:15:47;;;;;;;;;;;10.70;1.00;;;;;;5031750;28;19905;-80
2023/04/02 11:18:35;;;;;;;;;;;10.80;1.00;;;;;;5022236;28;19905;-80
2023/04/02 11:21:05;;;;;;;;;;;10.70;1.00;;;;;;5011661;28;20297;-80
2023/04/02 11:23:53;;;;;;;;;;;10.60;1.00;;;;;;5011763;28;20273;-80
2023/04/02 11:26:47;;;;;;;;;;;10.60;1.00;;;;;;5024068;28;19991;-80
2023/04/02 11:29:19;;;;;;;;;;;10.70;1.00;;;;;;5000678;28;20250;-80
2023/04/02 11:31:48;;;;;;;;;;;10.70;1.00;;;;;;5016425;28;20420;-80
2023/04/02 11:34:37;;;;;;;;;;;10.70;1.00;;;;;;5019773;28;19913;-75
2023/04/02 11:37:07;;;;;;;;;;;10.70;1.00;;;;;;5013124;28;20321;-76
2023/04/02 11:39:48;;;;;;;;;;;10.70;1.00;;;;;;5016536;28;19909;-75
2023/04/02 11:42:17;;;;;;;;;;;10.60;1.00;;;;;;5033844;28;19913;-75
2023/04/02 11:44:42;;;;;;;;;;;10.50;1.00;;;;;;5034425;28;19905;-75
2023/04/02 11:47:20;;;;;;;;;;;10.50;1.00;;;;;;5033786;28;19913;-75
2023/04/02 11:50:07;;;;;;;;;;;10.30;1.00;;;;;;5033984;28;20007;-75
2023/04/02 11:52:35;;;;;;;;;;;9.90;1.00;;;;;;5032287;28;19909;-76
2023/04/02 11:55:31;;;;;;;;;;;9.90;1.00;;;;;;5033645;28;19985;-75
2023/04/02 11:58:05;;;;;;;;;;;9.90;1.00;;;;;;5021468;28;19909;-74
2023/04/02 12:00:55;;;;;;;;;;;10.00;1.00;;;;;;5034289;28;19905;-74
2023/04/02 12:03:28;;;;;;;;;;;9.80;1.00;;;;;;5031997;28;19911;-79
2023/04/02 12:06:17;;;;;;;;;;;9.70;1.00;;;;;;5023069;28;19909;-80
2023/04/02 12:08:46;;;;;;;;;;;9.80;1.00;;;;;;5014546;28;20404;-80
2023/04/02 12:11:17;;;;;;;;;;;10.00;1.00;;;;;;5019744;28;20419;-81
2023/04/02 12:16:47;;;;;;;;;;;10.40;1.00;;;;;;5096264;28;19915;-79
2023/04/02 12:19:17;;;;;;;;;;;10.50;1.00;;;;;;5082745;28;19943;-79
2023/04/02 12:21:47;;;;;;;;;;;10.50;1.00;;;;;;5076306;28;19919;-79
2023/04/02 12:24:35;;;;;;;;;;;10.50;1.00;;;;;;5076102;28;19912;-80
2023/04/02 12:27:26;;;;;;;;;;;10.60;1.00;;;;;;5080914;28;19912;-79
2023/04/02 12:30:21;;;;;;;;;;;10.80;1.00;;;;;;5057992;28;20415;-80
2023/04/02 12:32:46;;;;;;;;;;;10.70;1.00;;;;;;5075743;28;19920;-79
2023/04/02 12:35:47;;;;;;;;;;;10.50;1.00;;;;;;5076131;28;19908;-79
2023/04/02 12:38:47;;;;;;;;;;;10.40;1.00;;;;;;5075098;28;19908;-79
2023/04/02 12:41:47;;;;;;;;;;;10.40;1.00;;;;;;5063197;28;19908;-79
2023/04/02 12:44:20;;;;;;;;;;;10.50;1.00;;;;;;5093184;28;20282;-80
2023/04/02 12:47:17;;;;;;;;;;;10.70;1.00;;;;;;5094382;28;19955;-80
2023/04/02 12:49:43;;;;;;;;;;;10.70;1.00;;;;;;5094411;28;19904;-75
2023/04/02 12:52:19;;;;;;;;;;;10.70;1.00;;;;;;5075473;28;19905;-74
2023/04/02 12:54:59;;;;;;;;;;;10.70;1.00;;;;;;5064024;28;19904;-75
2023/04/02 12:57:25;;;;;;;;;;;10.60;1.00;;;;;;5090870;28;19908;-75
2023/04/02 13:00:04;;;;;;;;;;;10.40;1.00;;;;;;5083947;28;19904;-75
2023/04/02 13:02:45;;;;;;;;;;;10.30;1.00;;;;;;5076348;28;19990;-75
2023/04/02 13:05:39;;;;;;;;;;;10.20;1.00;;;;;;5089598;28;19904;-79
2023/04/02 13:08:05;;;;;;;;;;;10.10;1.00;;;;;;5056010;28;19915;-79
2023/04/02 13:11:05;;;;;;;;;;;9.90;1.00;;;;;;5075081;28;19905;-79
2023/04/02 13:13:59;;;;;;;;;;;9.80;1.00;;;;;;5074705;28;19909;-81
2023/04/02 13:16:37;;;;;;;;;;;9.60;1.00;;;;;;5087084;28;19904;-80
2023/04/02 13:19:23;;;;;;;;;;;9.60;1.00;;;;;;5077195;28;19908;-77
2023/04/02 13:21:49;;;;;;;;;;;9.60;1.00;;;;;;5092935;28;20355;-80
2023/04/02 13:24:31;;;;;;;;;;;9.60;1.00;;;;;;5063953;28;19961;-77
2023/04/02 13:27:17;;;;;;;;;;;9.50;1.00;;;;;;5076057;28;20315;-81
2023/04/02 13:30:05;;;;;;;;;;;9.30;1.00;;;;;;5074965;28;19996;-81
2023/04/02 13:32:41;;;;;;;;;;;9.10;1.00;;;;;;5073723;28;19928;-81
2023/04/02 13:38:09;;;;;;;;;;;9.10;1.00;;;;;;5074682;28;19961;-81
2023/04/02 13:40:38;;;;;;;;;;;9.10;1.00;;;;;;5090399;28;19908;-82
2023/04/02 13:43:06;;;;;;;;;;;9.10;1.00;;;;;;5094634;28;19915;-82
2023/04/02 13:45:40;;;;;;;;;;;9.10;1.00;;;;;;5093898;28;19911;-82
2023/04/02 13:48:08;;;;;;;;;;;9.10;1.00;;;;;;5079037;28;19904;-83
2023/04/02 13:50:34;;;;;;;;;;;9.20;1.00;;;;;;5094671;28;19939;-75
2023/04/02 13:53:04;;;;;;;;;;;9.30;1.00;;;;;;5085106;28;20358;-75
2023/04/02 13:55:37;;;;;;;;;;;9.40;1.00;;;;;;5077629;28;19909;-75
2023/04/02 13:58:11;;;;;;;;;;;9.60;1.00;;;;;;5064623;28;19972;-76
2023/04/02 14:00:37;;;;;;;;;;;9.70;1.00;;;;;;5085019;28;19912;-73
2023/04/02 14:03:09;;;;;;;;;;;9.80;1.00;;;;;;5083043;28;20416;-74
2023/04/02 14:05:56;;;;;;;;;;;9.80;1.00;;;;;;5085338;28;19904;-82
2023/04/02 14:08:23;;;;;;;;;;;9.80;1.00;;;;;;5079668;28;20010;-81
2023/04/02 14:11:11;;;;;;;;;;;9.70;1.00;;;;;;5074161;28;19915;-81
2023/04/02 14:14:05;;;;;;;;;;;9.30;1.00;;;;;;5055883;28;19908;-79
2023/04/02 14:16:41;;;;;;;;;;;9.20;1.00;;;;;;5073729;28;19930;-82
2023/04/02 14:19:17;;;;;;;;;;;9.20;1.00;;;;;;5073897;28;20007;-80
2023/04/02 14:21:55;;;;;;;;;;;9.20;1.00;;;;;;5074818;28;19987;-72
2023/04/02 14:24:29;;;;;;;;;;;9.30;1.00;;;;;;5083177;28;19912;-72
2023/04/02 14:27:12;;;;;;;;;;;9.20;1.00;;;;;;5069306;28;19938;-73
2023/04/02 14:29:37;;;;;;;;;;;9.30;1.00;;;;;;5074007;28;20255;-75
2023/04/02 14:32:06;;;;;;;;;;;9.30;1.00;;;;;;5090429;28;19934;-74
2023/04/02 14:34:42;;;;;;;;;;;9.20;1.00;;;;;;5079204;28;20003;-74
2023/04/02 14:37:17;;;;;;;;;;;9.20;1.00;;;;;;5074821;28;21011;-81
2023/04/02 14:39:56;;;;;;;;;;;9.10;1.00;;;;;;5073794;28;19930;-81
2023/04/02 14:45:24;;;;;;;;;;;8.90;1.00;;;;;;5087742;28;20040;-81
2023/04/02 14:48:04;;;;;;;;;;;8.80;1.00;;;;;;5074365;28;19998;-83
2023/04/02 14:50:33;;;;;;;;;;;8.60;1.00;;;;;;5084657;28;19926;-74
2023/04/02 14:53:02;;;;;;;;;;;8.50;1.00;;;;;;5086987;28;19908;-74
2023/04/02 14:55:42;;;;;;;;;;;8.50;1.00;;;;;;5085150;28;19916;-74
2023/04/02 14:58:16;;;;;;;;;;;8.40;1.00;;;;;;5072652;28;19974;-74
2023/04/02 15:00:47;;;;;;;;;;;8.10;1.00;;;;;;5075021;28;19940;-74
2023/04/02 15:03:16;;;;;;;;;;;8.20;1.00;;;;;;5081594;28;19912;-74
2023/04/02 15:05:47;;;;;;;;;;;8.10;1.00;;;;;;5090186;28;19963;-79
2023/04/02 15:08:19;;;;;;;;;;;8.10;1.00;;;;;;5083076;28;19960;-81
2023/04/02 15:13:59;;;;;;;;;;;8.00;1.00;;;;;;5092843;28;19921;-81
2023/04/02 15:16:35;;;;;;;;;;;7.90;1.00;;;;;;5076667;28;19908;-81
2023/04/02 15:19:12;;;;;;;;;;;7.90;1.00;;;;;;5077046;28;19908;-81
2023/04/02 15:21:47;;;;;;;;;;;7.90;1.00;;;;;;5085035;28;20054;-81
2023/04/02 15:24:35;;;;;;;;;;;8.00;1.00;;;;;;5077358;28;19926;-81
2023/04/02 15:27:31;;;;;;;;;;;8.00;1.00;;;;;;5086404;28;19908;-84
2023/04/02 15:30:21;;;;;;;;;;;8.00;1.00;;;;;;5035495;28;19909;-81
2023/04/02 15:32:48;;;;;;;;;;;7.90;1.00;;;;;;5017011;28;19921;-93
2023/04/02 15:38:34;;;;;;;;;;;7.90;1.00;;;;;;5028264;28;19954;-92
2023/04/02 15:47:29;;;;;;;;;;;7.80;1.00;;;;;;5021003;28;20292;-90
2023/04/02 15:50:23;;;;;;;;;;;7.80;1.00;;;;;;5004195;28;20008;-91
2023/04/02 15:53:23;;;;;;;;;;;7.70;1.00;;;;;;4999846;28;19909;-91
2023/04/02 16:02:23;;;;;;;;;;;7.70;1.00;;;;;;5021343;28;19920;-92
2023/04/02 16:05:05;;;;;;;;;;;7.60;1.00;;;;;;5018765;28;19909;-90
2023/04/02 16:10:35;;;;;;;;;;;7.70;1.00;;;;;;5076760;28;20375;-91
2023/04/02 16:13:25;;;;;;;;;;;7.80;1.00;;;;;;5058991;28;19908;-93
2023/04/02 16:16:11;;;;;;;;;;;7.80;1.00;;;;;;5067808;28;19994;-93
2023/04/02 16:22:00;;;;;;;;;;;7.80;1.00;;;;;;5088979;28;19958;-85
2023/04/02 16:24:41;;;;;;;;;;;7.70;1.00;;;;;;5058569;28;19904;-84
2023/04/02 16:27:17;;;;;;;;;;;7.60;1.00;;;;;;5073808;28;19912;-84
2023/04/02 16:30:17;;;;;;;;;;;7.50;1.00;;;;;;5058693;28;19904;-83
2023/04/02 16:33:19;;;;;;;;;;;7.50;1.00;;;;;;5064864;28;20327;-82
2023/04/02 16:39:00;;;;;;;;;;;7.50;1.00;;;;;;5015201;28;19913;-92
2023/04/02 16:44:28;;;;;;;;;;;7.50;1.00;;;;;;5034862;28;19964;-92
2023/04/02 16:50:10;;;;;;;;;;;7.30;1.00;;;;;;5034233;28;19919;-92
2023/04/02 16:53:11;;;;;;;;;;;7.30;1.00;;;;;;5011823;28;19909;-90
2023/04/02 16:55:41;;;;;;;;;;;7.20;1.00;;;;;;5004234;28;19909;-85
2023/04/02 17:01:17;;;;;;;;;;;7.10;1.00;;;;;;5014320;28;20008;-88
2023/04/02 17:04:17;;;;;;;;;;;7.10;1.00;;;;;;5004057;28;19916;-87
2023/04/02 17:13:24;;;;;;;;;;;6.90;1.00;;;;;;5087648;28;19950;-92
2023/04/02 17:16:11;;;;;;;;;;;6.90;1.00;;;;;;5077209;28;20010;-90
2023/04/02 17:18:56;;;;;;;;;;;6.90;1.00;;;;;;5067408;28;19912;-91
2023/04/02 17:21:59;;;;;;;;;;;6.90;1.00;;;;;;5061751;28;19920;-91
2023/04/02 17:24:47;;;;;;;;;;;6.90;1.00;;;;;;5057086;28;20373;-83
2023/04/02 17:27:41;;;;;;;;;;;6.90;1.00;;;;;;5057447;28;19908;-85
2023/04/02 17:30:30;;;;;;;;;;;6.90;1.00;;;;;;5085469;28;19922;-85
2023/04/02 17:32:55;;;;;;;;;;;6.90;1.00;;;;;;5075192;28;19917;-86
2023/04/02 17:35:47;;;;;;;;;;;6.80;1.00;;;;;;5086427;28;20006;-81
2023/04/02 17:38:16;;;;;;;;;;;6.80;1.00;;;;;;5089972;28;19936;-78
2023/04/02 17:41:04;;;;;;;;;;;6.70;1.00;;;;;;5081031;28;19916;-78
2023/04/02 17:44:01;;;;;;;;;;;6.80;1.00;;;;;;5074550;28;19932;-78
2023/04/02 17:46:45;;;;;;;;;;;6.80;1.00;;;;;;5023549;28;19913;-77
2023/04/02 17:49:29;;;;;;;;;;;6.80;1.00;;;;;;5039661;28;19904;-77
2023/04/02 17:52:17;;;;;;;;;;;6.70;1.00;;;;;;5050992;28;20395;-79
2023/04/02 17:54:47;;;;;;;;;;;6.70;1.00;;;;;;4987483;28;19905;-78
2023/04/02 17:57:35;;;;;;;;;;;6.70;1.00;;;;;;4992198;28;19910;-78
2023/04/02 18:03:17;;;;;;;;;;;6.60;1.00;;;;;;4993404;28;20415;-76
2023/04/02 18:05:54;;;;;;;;;;;6.50;1.00;;;;;;4976453;28;20318;-76
2023/04/02 18:11:40;;;;;;;;;;;6.50;1.00;;;;;;5002183;28;19976;-83